sensor_id;sensor_type;location;lat;lon;timestamp;P1;durP1;ratioP1;P2;durP2;ratioP2
9108;SDS011;4590;51.462;6.692;2023-11-21T00:00:45;11.37;;;7.53;;
9108;SDS011;4590;51.462;6.692;2023-11-21T00:03:10;11.53;;;6.93;;
9108;SDS011;4590;51.462;6.692;2023-11-21T00:05:39;12.60;;;7.47;;
9108;SDS011;4590;51.462;6.692;2023-11-21T00:08:06;10.13;;;6.65;;
9108;SDS011;4590;51.462;6.692;2023-11-21T00:10:32;11.27;;;6.88;;
9108;SDS011;4590;51.462;6.692;2023-11-21T00:12:57;12.30;;;7.50;;
9108;SDS011;4590;51.462;6.692;2023-11-21T00:15:23;14.27;;;7.57;;
9108;SDS011;4590;51.462;6.692;2023-11-21T00:17:48;10.40;;;6.93;;
9108;SDS011;4590;51.462;6.692;2023-11-21T00:20:13;12.00;;;8.00;;
9108;SDS011;4590;51.462;6.692;2023-11-21T00:22:39;14.03;;;7.43;;
9108;SDS011;4590;51.462;6.692;2023-11-21T00:25:05;14.18;;;7.85;;
9108;SDS011;4590;51.462;6.692;2023-11-21T00:29:56;12.20;;;6.67;;
9108;SDS011;4590;51.462;6.692;2023-11-21T00:32:22;11.50;;;7.13;;
9108;SDS011;4590;51.462;6.692;2023-11-21T00:34:47;14.40;;;8.57;;
9108;SDS011;4590;51.462;6.692;2023-11-21T00:37:13;11.10;;;7.27;;
9108;SDS011;4590;51.462;6.692;2023-11-21T00:39:39;13.32;;;7.63;;
9108;SDS011;4590;51.462;6.692;2023-11-21T00:42:05;12.63;;;7.10;;
9108;SDS011;4590;51.462;6.692;2023-11-21T00:44:30;11.50;;;7.40;;
9108;SDS011;4590;51.462;6.692;2023-11-21T00:46:55;11.83;;;7.20;;
9108;SDS011;4590;51.462;6.692;2023-11-21T00:49:21;11.20;;;7.27;;
9108;SDS011;4590;51.462;6.692;2023-11-21T00:51:46;12.00;;;7.13;;
9108;SDS011;4590;51.462;6.692;2023-11-21T00:54:12;12.53;;;6.83;;
9108;SDS011;4590;51.462;6.692;2023-11-21T00:56:37;13.30;;;7.67;;
9108;SDS011;4590;51.462;6.692;2023-11-21T00:59:03;10.10;;;7.18;;
9108;SDS011;4590;51.462;6.692;2023-11-21T01:01:29;13.35;;;7.18;;
9108;SDS011;4590;51.462;6.692;2023-11-21T01:03:55;11.23;;;7.50;;
9108;SDS011;4590;51.462;6.692;2023-11-21T01:06:20;11.87;;;7.07;;
9108;SDS011;4590;51.462;6.692;2023-11-21T01:08:46;12.53;;;7.50;;
9108;SDS011;4590;51.462;6.692;2023-11-21T01:11:11;11.63;;;6.90;;
9108;SDS011;4590;51.462;6.692;2023-11-21T01:13:37;11.95;;;6.93;;
9108;SDS011;4590;51.462;6.692;2023-11-21T01:16:04;12.48;;;7.70;;
9108;SDS011;4590;51.462;6.692;2023-11-21T01:18:31;10.95;;;6.72;;
9108;SDS011;4590;51.462;6.692;2023-11-21T01:20:56;13.73;;;7.33;;
9108;SDS011;4590;51.462;6.692;2023-11-21T01:23:22;10.02;;;6.38;;
9108;SDS011;4590;51.462;6.692;2023-11-21T01:25:47;11.07;;;6.60;;
9108;SDS011;4590;51.462;6.692;2023-11-21T01:28:13;9.23;;;6.40;;
9108;SDS011;4590;51.462;6.692;2023-11-21T01:30:38;11.03;;;6.80;;
9108;SDS011;4590;51.462;6.692;2023-11-21T01:33:04;10.98;;;6.53;;
9108;SDS011;4590;51.462;6.692;2023-11-21T01:35:29;10.47;;;7.13;;
9108;SDS011;4590;51.462;6.692;2023-11-21T01:37:55;9.70;;;6.45;;
9108;SDS011;4590;51.462;6.692;2023-11-21T01:40:20;11.60;;;6.50;;
9108;SDS011;4590;51.462;6.692;2023-11-21T01:42:46;12.83;;;6.73;;
9108;SDS011;4590;51.462;6.692;2023-11-21T01:47:38;10.32;;;5.70;;
9108;SDS011;4590;51.462;6.692;2023-11-21T01:50:06;11.00;;;6.90;;
9108;SDS011;4590;51.462;6.692;2023-11-21T01:52:32;9.30;;;6.53;;
9108;SDS011;4590;51.462;6.692;2023-11-21T01:54:59;9.77;;;6.65;;
9108;SDS011;4590;51.462;6.692;2023-11-21T01:57:25;11.27;;;6.47;;
9108;SDS011;4590;51.462;6.692;2023-11-21T01:59:51;11.00;;;6.77;;
9108;SDS011;4590;51.462;6.692;2023-11-21T02:02:19;9.35;;;6.30;;
9108;SDS011;4590;51.462;6.692;2023-11-21T02:04:45;10.43;;;7.10;;
9108;SDS011;4590;51.462;6.692;2023-11-21T02:07:10;12.80;;;6.97;;
9108;SDS011;4590;51.462;6.692;2023-11-21T02:09:36;10.27;;;6.35;;
9108;SDS011;4590;51.462;6.692;2023-11-21T02:12:03;10.30;;;6.50;;
9108;SDS011;4590;51.462;6.692;2023-11-21T02:14:29;13.48;;;7.78;;
9108;SDS011;4590;51.462;6.692;2023-11-21T02:19:23;10.48;;;6.22;;
9108;SDS011;4590;51.462;6.692;2023-11-21T02:21:54;12.43;;;8.38;;
9108;SDS011;4590;51.462;6.692;2023-11-21T02:24:24;11.80;;;7.22;;
9108;SDS011;4590;51.462;6.692;2023-11-21T02:26:50;13.23;;;7.20;;
9108;SDS011;4590;51.462;6.692;2023-11-21T02:29:18;12.45;;;7.18;;
9108;SDS011;4590;51.462;6.692;2023-11-21T02:31:47;11.38;;;7.22;;
9108;SDS011;4590;51.462;6.692;2023-11-21T02:34:13;14.40;;;7.53;;
9108;SDS011;4590;51.462;6.692;2023-11-21T02:36:39;11.57;;;7.55;;
9108;SDS011;4590;51.462;6.692;2023-11-21T02:39:05;14.67;;;8.20;;
9108;SDS011;4590;51.462;6.692;2023-11-21T02:41:31;10.65;;;7.03;;
9108;SDS011;4590;51.462;6.692;2023-11-21T02:43:56;11.97;;;7.27;;
9108;SDS011;4590;51.462;6.692;2023-11-21T02:46:22;15.97;;;9.10;;
9108;SDS011;4590;51.462;6.692;2023-11-21T02:48:47;14.43;;;7.80;;
9108;SDS011;4590;51.462;6.692;2023-11-21T02:51:12;14.53;;;8.43;;
9108;SDS011;4590;51.462;6.692;2023-11-21T02:53:38;13.43;;;7.80;;
9108;SDS011;4590;51.462;6.692;2023-11-21T02:56:03;13.20;;;7.23;;
9108;SDS011;4590;51.462;6.692;2023-11-21T02:58:29;14.07;;;8.93;;
9108;SDS011;4590;51.462;6.692;2023-11-21T03:00:55;14.67;;;9.10;;
9108;SDS011;4590;51.462;6.692;2023-11-21T03:05:48;13.40;;;8.48;;
9108;SDS011;4590;51.462;6.692;2023-11-21T03:08:14;12.60;;;8.57;;
9108;SDS011;4590;51.462;6.692;2023-11-21T03:10:39;14.03;;;9.63;;
9108;SDS011;4590;51.462;6.692;2023-11-21T03:13:04;17.37;;;9.60;;
9108;SDS011;4590;51.462;6.692;2023-11-21T03:15:30;15.80;;;9.40;;
9108;SDS011;4590;51.462;6.692;2023-11-21T03:17:55;17.30;;;10.63;;
9108;SDS011;4590;51.462;6.692;2023-11-21T03:20:20;18.23;;;9.63;;
9108;SDS011;4590;51.462;6.692;2023-11-21T03:22:45;16.63;;;9.60;;
9108;SDS011;4590;51.462;6.692;2023-11-21T03:25:11;14.80;;;9.40;;
9108;SDS011;4590;51.462;6.692;2023-11-21T03:27:36;14.23;;;8.80;;
9108;SDS011;4590;51.462;6.692;2023-11-21T03:30:02;12.50;;;8.63;;
9108;SDS011;4590;51.462;6.692;2023-11-21T03:32:28;16.33;;;9.63;;
9108;SDS011;4590;51.462;6.692;2023-11-21T03:34:57;17.57;;;9.77;;
9108;SDS011;4590;51.462;6.692;2023-11-21T03:37:23;13.35;;;8.45;;
9108;SDS011;4590;51.462;6.692;2023-11-21T03:39:49;14.90;;;8.80;;
9108;SDS011;4590;51.462;6.692;2023-11-21T03:42:15;14.45;;;9.00;;
9108;SDS011;4590;51.462;6.692;2023-11-21T03:44:40;15.80;;;10.30;;
9108;SDS011;4590;51.462;6.692;2023-11-21T03:47:05;17.23;;;10.53;;
9108;SDS011;4590;51.462;6.692;2023-11-21T03:49:31;12.60;;;8.10;;
9108;SDS011;4590;51.462;6.692;2023-11-21T03:51:56;15.70;;;8.83;;
9108;SDS011;4590;51.462;6.692;2023-11-21T03:54:21;17.67;;;10.23;;
9108;SDS011;4590;51.462;6.692;2023-11-21T03:56:47;16.57;;;9.23;;
9108;SDS011;4590;51.462;6.692;2023-11-21T03:59:12;16.80;;;10.10;;
9108;SDS011;4590;51.462;6.692;2023-11-21T04:01:37;15.60;;;9.23;;
9108;SDS011;4590;51.462;6.692;2023-11-21T04:04:02;14.17;;;8.83;;
9108;SDS011;4590;51.462;6.692;2023-11-21T04:06:29;16.60;;;8.85;;
9108;SDS011;4590;51.462;6.692;2023-11-21T04:08:54;14.00;;;8.97;;
9108;SDS011;4590;51.462;6.692;2023-11-21T04:11:19;16.17;;;9.03;;
9108;SDS011;4590;51.462;6.692;2023-11-21T04:13:45;15.67;;;9.30;;
9108;SDS011;4590;51.462;6.692;2023-11-21T04:16:11;14.77;;;8.45;;
9108;SDS011;4590;51.462;6.692;2023-11-21T04:18:37;15.35;;;9.52;;
9108;SDS011;4590;51.462;6.692;2023-11-21T04:21:04;14.32;;;9.27;;
9108;SDS011;4590;51.462;6.692;2023-11-21T04:23:30;14.75;;;9.43;;
9108;SDS011;4590;51.462;6.692;2023-11-21T04:25:58;16.67;;;9.82;;
9108;SDS011;4590;51.462;6.692;2023-11-21T04:28:23;15.73;;;9.70;;
9108;SDS011;4590;51.462;6.692;2023-11-21T04:30:49;17.20;;;8.77;;
9108;SDS011;4590;51.462;6.692;2023-11-21T04:33:15;17.65;;;10.30;;
9108;SDS011;4590;51.462;6.692;2023-11-21T04:35:41;16.23;;;9.20;;
9108;SDS011;4590;51.462;6.692;2023-11-21T04:38:06;13.57;;;9.10;;
9108;SDS011;4590;51.462;6.692;2023-11-21T04:40:31;18.20;;;10.17;;
9108;SDS011;4590;51.462;6.692;2023-11-21T04:42:56;14.73;;;9.00;;
9108;SDS011;4590;51.462;6.692;2023-11-21T04:45:22;18.97;;;11.33;;
9108;SDS011;4590;51.462;6.692;2023-11-21T04:47:47;18.47;;;10.97;;
9108;SDS011;4590;51.462;6.692;2023-11-21T04:50:13;18.80;;;10.77;;
9108;SDS011;4590;51.462;6.692;2023-11-21T04:52:38;17.10;;;9.67;;
9108;SDS011;4590;51.462;6.692;2023-11-21T04:55:04;19.67;;;10.77;;
9108;SDS011;4590;51.462;6.692;2023-11-21T04:57:31;16.60;;;10.02;;
9108;SDS011;4590;51.462;6.692;2023-11-21T04:59:57;15.70;;;9.60;;
9108;SDS011;4590;51.462;6.692;2023-11-21T05:02:22;15.90;;;9.57;;
9108;SDS011;4590;51.462;6.692;2023-11-21T05:04:48;15.10;;;9.67;;
9108;SDS011;4590;51.462;6.692;2023-11-21T05:07:13;16.03;;;10.43;;
9108;SDS011;4590;51.462;6.692;2023-11-21T05:09:45;14.17;;;8.93;;
9108;SDS011;4590;51.462;6.692;2023-11-21T05:12:11;15.30;;;9.55;;
9108;SDS011;4590;51.462;6.692;2023-11-21T05:14:37;15.63;;;9.13;;
9108;SDS011;4590;51.462;6.692;2023-11-21T05:17:03;16.10;;;9.40;;
9108;SDS011;4590;51.462;6.692;2023-11-21T05:19:29;16.80;;;9.93;;
9108;SDS011;4590;51.462;6.692;2023-11-21T05:21:54;14.17;;;9.30;;
9108;SDS011;4590;51.462;6.692;2023-11-21T05:24:20;20.47;;;9.63;;
9108;SDS011;4590;51.462;6.692;2023-11-21T05:26:45;17.13;;;9.07;;
9108;SDS011;4590;51.462;6.692;2023-11-21T05:29:10;17.23;;;9.53;;
9108;SDS011;4590;51.462;6.692;2023-11-21T05:31:36;17.27;;;9.83;;
9108;SDS011;4590;51.462;6.692;2023-11-21T05:34:02;17.60;;;10.43;;
9108;SDS011;4590;51.462;6.692;2023-11-21T05:36:30;18.35;;;10.48;;
9108;SDS011;4590;51.462;6.692;2023-11-21T05:38:55;21.83;;;11.17;;
9108;SDS011;4590;51.462;6.692;2023-11-21T05:41:20;20.70;;;10.57;;
9108;SDS011;4590;51.462;6.692;2023-11-21T05:43:46;23.08;;;13.27;;
9108;SDS011;4590;51.462;6.692;2023-11-21T05:46:11;27.17;;;13.63;;
9108;SDS011;4590;51.462;6.692;2023-11-21T05:48:38;21.52;;;12.15;;
9108;SDS011;4590;51.462;6.692;2023-11-21T05:51:06;23.27;;;11.93;;
9108;SDS011;4590;51.462;6.692;2023-11-21T05:53:33;27.02;;;13.15;;
9108;SDS011;4590;51.462;6.692;2023-11-21T05:55:58;24.30;;;13.60;;
9108;SDS011;4590;51.462;6.692;2023-11-21T05:58:24;25.87;;;13.13;;
9108;SDS011;4590;51.462;6.692;2023-11-21T06:00:49;25.13;;;12.93;;
9108;SDS011;4590;51.462;6.692;2023-11-21T06:03:14;25.10;;;13.43;;
9108;SDS011;4590;51.462;6.692;2023-11-21T06:05:40;23.77;;;12.53;;
9108;SDS011;4590;51.462;6.692;2023-11-21T06:08:05;26.13;;;13.67;;
9108;SDS011;4590;51.462;6.692;2023-11-21T06:10:32;26.33;;;13.63;;
9108;SDS011;4590;51.462;6.692;2023-11-21T06:12:57;27.00;;;14.27;;
9108;SDS011;4590;51.462;6.692;2023-11-21T06:15:23;25.67;;;14.10;;
9108;SDS011;4590;51.462;6.692;2023-11-21T06:17:48;25.45;;;14.13;;
9108;SDS011;4590;51.462;6.692;2023-11-21T06:20:17;23.15;;;11.90;;
9108;SDS011;4590;51.462;6.692;2023-11-21T06:22:43;21.77;;;13.45;;
9108;SDS011;4590;51.462;6.692;2023-11-21T06:27:42;23.67;;;12.30;;
9108;SDS011;4590;51.462;6.692;2023-11-21T06:30:13;24.33;;;13.90;;
9108;SDS011;4590;51.462;6.692;2023-11-21T06:32:39;24.10;;;12.98;;
9108;SDS011;4590;51.462;6.692;2023-11-21T06:35:05;26.20;;;14.43;;
9108;SDS011;4590;51.462;6.692;2023-11-21T06:37:31;24.30;;;11.73;;
9108;SDS011;4590;51.462;6.692;2023-11-21T06:39:57;27.42;;;15.23;;
9108;SDS011;4590;51.462;6.692;2023-11-21T06:42:24;23.88;;;13.05;;
9108;SDS011;4590;51.462;6.692;2023-11-21T06:44:50;24.85;;;13.48;;
9108;SDS011;4590;51.462;6.692;2023-11-21T06:47:35;30.63;;;16.05;;
9108;SDS011;4590;51.462;6.692;2023-11-21T06:50:01;26.80;;;13.63;;
9108;SDS011;4590;51.462;6.692;2023-11-21T06:52:26;24.93;;;13.13;;
9108;SDS011;4590;51.462;6.692;2023-11-21T06:54:51;27.33;;;14.03;;
9108;SDS011;4590;51.462;6.692;2023-11-21T06:57:17;24.07;;;13.27;;
9108;SDS011;4590;51.462;6.692;2023-11-21T06:59:42;25.30;;;13.65;;
9108;SDS011;4590;51.462;6.692;2023-11-21T07:02:08;24.60;;;12.70;;
9108;SDS011;4590;51.462;6.692;2023-11-21T07:04:34;23.75;;;13.43;;
9108;SDS011;4590;51.462;6.692;2023-11-21T07:07:00;21.88;;;12.80;;
9108;SDS011;4590;51.462;6.692;2023-11-21T07:09:25;25.57;;;13.70;;
9108;SDS011;4590;51.462;6.692;2023-11-21T07:11:51;24.50;;;12.53;;
9108;SDS011;4590;51.462;6.692;2023-11-21T07:14:17;24.40;;;13.20;;
9108;SDS011;4590;51.462;6.692;2023-11-21T07:16:44;23.98;;;12.57;;
9108;SDS011;4590;51.462;6.692;2023-11-21T07:19:10;24.95;;;13.48;;
9108;SDS011;4590;51.462;6.692;2023-11-21T07:21:37;22.60;;;12.63;;
9108;SDS011;4590;51.462;6.692;2023-11-21T07:24:03;24.67;;;13.02;;
9108;SDS011;4590;51.462;6.692;2023-11-21T07:26:29;25.38;;;14.02;;
9108;SDS011;4590;51.462;6.692;2023-11-21T07:28:58;25.45;;;13.85;;
9108;SDS011;4590;51.462;6.692;2023-11-21T07:31:23;23.93;;;13.53;;
9108;SDS011;4590;51.462;6.692;2023-11-21T07:33:49;23.27;;;13.23;;
9108;SDS011;4590;51.462;6.692;2023-11-21T07:36:15;22.00;;;12.27;;
9108;SDS011;4590;51.462;6.692;2023-11-21T07:38:43;20.85;;;11.43;;
9108;SDS011;4590;51.462;6.692;2023-11-21T07:41:08;19.03;;;10.97;;
9108;SDS011;4590;51.462;6.692;2023-11-21T07:43:34;21.27;;;12.00;;
9108;SDS011;4590;51.462;6.692;2023-11-21T07:46:03;21.45;;;11.65;;
9108;SDS011;4590;51.462;6.692;2023-11-21T07:48:33;21.98;;;12.52;;
9108;SDS011;4590;51.462;6.692;2023-11-21T07:50:59;24.02;;;13.00;;
9108;SDS011;4590;51.462;6.692;2023-11-21T07:53:25;21.30;;;12.63;;
9108;SDS011;4590;51.462;6.692;2023-11-21T07:55:53;21.80;;;11.30;;
9108;SDS011;4590;51.462;6.692;2023-11-21T07:58:19;20.70;;;11.53;;
9108;SDS011;4590;51.462;6.692;2023-11-21T08:00:44;28.00;;;13.23;;
9108;SDS011;4590;51.462;6.692;2023-11-21T08:03:09;23.60;;;12.60;;
9108;SDS011;4590;51.462;6.692;2023-11-21T08:08:58;31.50;;;14.38;;
9108;SDS011;4590;51.462;6.692;2023-11-21T08:11:23;29.48;;;15.18;;
9108;SDS011;4590;51.462;6.692;2023-11-21T08:13:49;30.70;;;15.00;;
9108;SDS011;4590;51.462;6.692;2023-11-21T08:16:14;22.93;;;12.37;;
9108;SDS011;4590;51.462;6.692;2023-11-21T08:18:40;23.83;;;13.13;;
9108;SDS011;4590;51.462;6.692;2023-11-21T08:21:06;25.55;;;12.38;;
9108;SDS011;4590;51.462;6.692;2023-11-21T08:23:31;24.20;;;12.33;;
9108;SDS011;4590;51.462;6.692;2023-11-21T08:25:57;22.07;;;12.67;;
9108;SDS011;4590;51.462;6.692;2023-11-21T08:28:22;22.43;;;11.20;;
9108;SDS011;4590;51.462;6.692;2023-11-21T08:30:50;20.95;;;10.95;;
9108;SDS011;4590;51.462;6.692;2023-11-21T08:33:16;21.60;;;11.80;;
9108;SDS011;4590;51.462;6.692;2023-11-21T08:35:41;22.43;;;11.90;;
9108;SDS011;4590;51.462;6.692;2023-11-21T08:38:06;22.30;;;11.23;;
9108;SDS011;4590;51.462;6.692;2023-11-21T08:40:32;21.52;;;11.43;;
9108;SDS011;4590;51.462;6.692;2023-11-21T08:42:57;18.87;;;10.97;;
9108;SDS011;4590;51.462;6.692;2023-11-21T08:45:23;19.83;;;11.50;;
9108;SDS011;4590;51.462;6.692;2023-11-21T08:47:50;21.05;;;10.82;;
9108;SDS011;4590;51.462;6.692;2023-11-21T08:50:15;24.23;;;11.30;;
9108;SDS011;4590;51.462;6.692;2023-11-21T08:52:41;20.13;;;11.27;;
9108;SDS011;4590;51.462;6.692;2023-11-21T08:55:07;21.48;;;11.75;;
9108;SDS011;4590;51.462;6.692;2023-11-21T08:57:34;25.98;;;13.32;;
9108;SDS011;4590;51.462;6.692;2023-11-21T09:00:07;25.23;;;12.85;;
9108;SDS011;4590;51.462;6.692;2023-11-21T09:02:36;28.52;;;13.82;;
9108;SDS011;4590;51.462;6.692;2023-11-21T09:05:07;25.63;;;12.95;;
9108;SDS011;4590;51.462;6.692;2023-11-21T09:07:33;25.85;;;14.32;;
9108;SDS011;4590;51.462;6.692;2023-11-21T09:09:59;27.07;;;13.87;;
9108;SDS011;4590;51.462;6.692;2023-11-21T09:12:24;25.73;;;12.63;;
9108;SDS011;4590;51.462;6.692;2023-11-21T09:14:50;25.97;;;13.03;;
9108;SDS011;4590;51.462;6.692;2023-11-21T09:17:15;24.00;;;12.75;;
9108;SDS011;4590;51.462;6.692;2023-11-21T09:19:41;22.67;;;11.93;;
9108;SDS011;4590;51.462;6.692;2023-11-21T09:22:08;21.05;;;11.30;;
9108;SDS011;4590;51.462;6.692;2023-11-21T09:24:33;21.83;;;12.13;;
9108;SDS011;4590;51.462;6.692;2023-11-21T09:26:59;24.15;;;12.75;;
9108;SDS011;4590;51.462;6.692;2023-11-21T09:29:27;24.65;;;12.38;;
9108;SDS011;4590;51.462;6.692;2023-11-21T09:31:53;22.15;;;12.23;;
9108;SDS011;4590;51.462;6.692;2023-11-21T09:34:20;22.38;;;12.35;;
9108;SDS011;4590;51.462;6.692;2023-11-21T09:36:45;21.33;;;11.93;;
9108;SDS011;4590;51.462;6.692;2023-11-21T09:39:11;19.67;;;11.30;;
9108;SDS011;4590;51.462;6.692;2023-11-21T09:41:57;19.75;;;11.30;;
9108;SDS011;4590;51.462;6.692;2023-11-21T09:44:36;18.38;;;10.10;;
9108;SDS011;4590;51.462;6.692;2023-11-21T09:47:16;21.05;;;11.25;;
9108;SDS011;4590;51.462;6.692;2023-11-21T09:49:43;20.23;;;11.18;;
9108;SDS011;4590;51.462;6.692;2023-11-21T09:52:13;17.67;;;10.35;;
9108;SDS011;4590;51.462;6.692;2023-11-21T09:54:43;19.30;;;10.68;;
9108;SDS011;4590;51.462;6.692;2023-11-21T09:57:09;21.67;;;11.77;;
9108;SDS011;4590;51.462;6.692;2023-11-21T09:59:34;18.40;;;10.37;;
9108;SDS011;4590;51.462;6.692;2023-11-21T10:02:03;25.63;;;11.57;;
9108;SDS011;4590;51.462;6.692;2023-11-21T10:04:28;22.03;;;9.77;;
9108;SDS011;4590;51.462;6.692;2023-11-21T10:06:54;19.87;;;11.97;;
9108;SDS011;4590;51.462;6.692;2023-11-21T10:09:19;23.47;;;12.17;;
9108;SDS011;4590;51.462;6.692;2023-11-21T10:14:12;20.77;;;11.07;;
9108;SDS011;4590;51.462;6.692;2023-11-21T10:16:39;25.30;;;13.23;;
9108;SDS011;4590;51.462;6.692;2023-11-21T10:19:06;27.48;;;14.15;;
9108;SDS011;4590;51.462;6.692;2023-11-21T10:21:35;25.83;;;14.55;;
9108;SDS011;4590;51.462;6.692;2023-11-21T10:24:00;31.83;;;14.63;;
9108;SDS011;4590;51.462;6.692;2023-11-21T10:26:26;25.92;;;13.40;;
9108;SDS011;4590;51.462;6.692;2023-11-21T10:29:02;25.70;;;14.57;;
9108;SDS011;4590;51.462;6.692;2023-11-21T10:31:31;32.72;;;15.88;;
9108;SDS011;4590;51.462;6.692;2023-11-21T10:34:13;27.88;;;15.30;;
9108;SDS011;4590;51.462;6.692;2023-11-21T10:36:43;24.88;;;13.25;;
9108;SDS011;4590;51.462;6.692;2023-11-21T10:39:08;28.20;;;16.02;;
9108;SDS011;4590;51.462;6.692;2023-11-21T10:41:37;29.08;;;14.18;;
9108;SDS011;4590;51.462;6.692;2023-11-21T10:44:03;27.43;;;15.70;;
9108;SDS011;4590;51.462;6.692;2023-11-21T10:46:31;33.75;;;16.38;;
9108;SDS011;4590;51.462;6.692;2023-11-21T10:48:57;36.80;;;17.83;;
9108;SDS011;4590;51.462;6.692;2023-11-21T10:51:22;37.37;;;18.13;;
9108;SDS011;4590;51.462;6.692;2023-11-21T10:53:49;35.17;;;18.90;;
9108;SDS011;4590;51.462;6.692;2023-11-21T10:56:16;34.60;;;17.95;;
9108;SDS011;4590;51.462;6.692;2023-11-21T10:58:44;30.75;;;16.13;;
9108;SDS011;4590;51.462;6.692;2023-11-21T11:01:10;35.80;;;17.67;;
9108;SDS011;4590;51.462;6.692;2023-11-21T11:03:37;36.10;;;18.10;;
9108;SDS011;4590;51.462;6.692;2023-11-21T11:06:04;32.45;;;17.60;;
9108;SDS011;4590;51.462;6.692;2023-11-21T11:08:32;30.02;;;16.20;;
9108;SDS011;4590;51.462;6.692;2023-11-21T11:10:59;26.15;;;14.55;;
9108;SDS011;4590;51.462;6.692;2023-11-21T11:13:24;26.20;;;14.47;;
9108;SDS011;4590;51.462;6.692;2023-11-21T11:18:16;23.80;;;12.57;;
9108;SDS011;4590;51.462;6.692;2023-11-21T11:20:42;23.03;;;12.13;;
9108;SDS011;4590;51.462;6.692;2023-11-21T11:28:44;27.38;;;13.82;;
9108;SDS011;4590;51.462;6.692;2023-11-21T11:36:54;27.35;;;15.60;;
9108;SDS011;4590;51.462;6.692;2023-11-21T11:39:34;32.17;;;16.67;;
9108;SDS011;4590;51.462;6.692;2023-11-21T11:42:06;30.35;;;15.80;;
9108;SDS011;4590;51.462;6.692;2023-11-21T11:47:21;35.15;;;20.25;;
9108;SDS011;4590;51.462;6.692;2023-11-21T11:50:03;38.88;;;17.55;;
9108;SDS011;4590;51.462;6.692;2023-11-21T11:55:06;32.65;;;16.65;;
9108;SDS011;4590;51.462;6.692;2023-11-21T11:57:34;31.05;;;16.55;;
9108;SDS011;4590;51.462;6.692;2023-11-21T12:00:34;31.10;;;16.02;;
9108;SDS011;4590;51.462;6.692;2023-11-21T12:02:54;31.95;;;15.63;;
9108;SDS011;4590;51.462;6.692;2023-11-21T12:05:24;26.77;;;14.15;;
9108;SDS011;4590;51.462;6.692;2023-11-21T12:07:54;26.38;;;14.35;;
9108;SDS011;4590;51.462;6.692;2023-11-21T12:10:26;25.25;;;13.73;;
9108;SDS011;4590;51.462;6.692;2023-11-21T12:13:02;29.08;;;15.20;;
9108;SDS011;4590;51.462;6.692;2023-11-21T12:15:32;25.17;;;12.27;;
9108;SDS011;4590;51.462;6.692;2023-11-21T12:17:58;27.05;;;13.98;;
9108;SDS011;4590;51.462;6.692;2023-11-21T12:20:24;25.67;;;13.50;;
9108;SDS011;4590;51.462;6.692;2023-11-21T12:22:54;24.90;;;13.93;;
9108;SDS011;4590;51.462;6.692;2023-11-21T12:25:22;30.42;;;14.80;;
9108;SDS011;4590;51.462;6.692;2023-11-21T12:27:49;29.05;;;15.00;;
9108;SDS011;4590;51.462;6.692;2023-11-21T12:30:16;27.77;;;14.25;;
9108;SDS011;4590;51.462;6.692;2023-11-21T12:32:43;25.50;;;13.57;;
9108;SDS011;4590;51.462;6.692;2023-11-21T12:35:11;21.60;;;12.85;;
9108;SDS011;4590;51.462;6.692;2023-11-21T12:40:08;22.88;;;11.88;;
9108;SDS011;4590;51.462;6.692;2023-11-21T12:42:37;24.67;;;12.38;;
9108;SDS011;4590;51.462;6.692;2023-11-21T12:47:41;23.92;;;13.40;;
9108;SDS011;4590;51.462;6.692;2023-11-21T12:50:07;22.88;;;12.20;;
9108;SDS011;4590;51.462;6.692;2023-11-21T12:52:40;24.58;;;12.40;;
9108;SDS011;4590;51.462;6.692;2023-11-21T12:55:06;20.38;;;11.40;;
9108;SDS011;4590;51.462;6.692;2023-11-21T12:57:33;22.42;;;11.52;;
9108;SDS011;4590;51.462;6.692;2023-11-21T12:59:58;19.95;;;10.70;;
9108;SDS011;4590;51.462;6.692;2023-11-21T13:04:56;18.48;;;9.80;;
9108;SDS011;4590;51.462;6.692;2023-11-21T13:07:23;23.83;;;10.68;;
9108;SDS011;4590;51.462;6.692;2023-11-21T13:09:51;20.13;;;9.60;;
9108;SDS011;4590;51.462;6.692;2023-11-21T13:12:17;18.85;;;9.27;;
9108;SDS011;4590;51.462;6.692;2023-11-21T13:14:49;20.55;;;10.57;;
9108;SDS011;4590;51.462;6.692;2023-11-21T13:17:15;22.83;;;10.63;;
9108;SDS011;4590;51.462;6.692;2023-11-21T13:19:40;14.83;;;8.87;;
9108;SDS011;4590;51.462;6.692;2023-11-21T13:22:07;14.88;;;8.18;;
9108;SDS011;4590;51.462;6.692;2023-11-21T13:24:36;13.48;;;7.53;;
9108;SDS011;4590;51.462;6.692;2023-11-21T13:27:01;11.85;;;6.95;;
9108;SDS011;4590;51.462;6.692;2023-11-21T13:29:27;10.02;;;6.25;;
9108;SDS011;4590;51.462;6.692;2023-11-21T13:31:54;11.57;;;7.18;;
9108;SDS011;4590;51.462;6.692;2023-11-21T13:34:20;10.43;;;5.95;;
9108;SDS011;4590;51.462;6.692;2023-11-21T13:36:47;10.18;;;6.18;;
9108;SDS011;4590;51.462;6.692;2023-11-21T13:39:13;11.02;;;6.38;;
9108;SDS011;4590;51.462;6.692;2023-11-21T13:41:40;10.80;;;6.25;;
9108;SDS011;4590;51.462;6.692;2023-11-21T13:44:06;10.90;;;6.97;;
9108;SDS011;4590;51.462;6.692;2023-11-21T13:46:42;10.77;;;6.23;;
9108;SDS011;4590;51.462;6.692;2023-11-21T13:49:08;10.23;;;6.43;;
9108;SDS011;4590;51.462;6.692;2023-11-21T13:51:36;12.18;;;7.15;;
9108;SDS011;4590;51.462;6.692;2023-11-21T13:54:05;10.38;;;6.90;;
9108;SDS011;4590;51.462;6.692;2023-11-21T13:56:34;12.68;;;7.82;;
9108;SDS011;4590;51.462;6.692;2023-11-21T13:59:00;10.93;;;6.78;;
9108;SDS011;4590;51.462;6.692;2023-11-21T14:01:34;11.68;;;7.00;;
9108;SDS011;4590;51.462;6.692;2023-11-21T14:04:17;14.45;;;7.65;;
9108;SDS011;4590;51.462;6.692;2023-11-21T14:06:43;13.87;;;7.53;;
9108;SDS011;4590;51.462;6.692;2023-11-21T14:09:16;16.05;;;8.07;;
9108;SDS011;4590;51.462;6.692;2023-11-21T14:11:50;14.02;;;7.95;;
9108;SDS011;4590;51.462;6.692;2023-11-21T14:14:21;12.55;;;7.63;;
9108;SDS011;4590;51.462;6.692;2023-11-21T14:16:49;15.25;;;8.48;;
9108;SDS011;4590;51.462;6.692;2023-11-21T14:19:16;15.02;;;8.63;;
9108;SDS011;4590;51.462;6.692;2023-11-21T14:21:42;14.30;;;7.60;;
9108;SDS011;4590;51.462;6.692;2023-11-21T14:24:11;15.68;;;8.48;;
9108;SDS011;4590;51.462;6.692;2023-11-21T14:26:43;12.98;;;8.05;;
9108;SDS011;4590;51.462;6.692;2023-11-21T14:29:13;12.93;;;7.97;;
9108;SDS011;4590;51.462;6.692;2023-11-21T14:31:42;13.35;;;7.80;;
9108;SDS011;4590;51.462;6.692;2023-11-21T14:34:08;15.50;;;8.63;;
9108;SDS011;4590;51.462;6.692;2023-11-21T14:36:34;13.60;;;8.17;;
9108;SDS011;4590;51.462;6.692;2023-11-21T14:39:01;13.23;;;8.35;;
9108;SDS011;4590;51.462;6.692;2023-11-21T14:41:27;13.48;;;7.70;;
9108;SDS011;4590;51.462;6.692;2023-11-21T14:46:20;13.52;;;8.38;;
9108;SDS011;4590;51.462;6.692;2023-11-21T14:48:45;13.87;;;8.17;;
9108;SDS011;4590;51.462;6.692;2023-11-21T14:51:23;15.45;;;8.68;;
9108;SDS011;4590;51.462;6.692;2023-11-21T14:54:10;14.15;;;8.13;;
9108;SDS011;4590;51.462;6.692;2023-11-21T14:56:37;12.80;;;7.68;;
9108;SDS011;4590;51.462;6.692;2023-11-21T14:59:03;13.98;;;8.02;;
9108;SDS011;4590;51.462;6.692;2023-11-21T15:01:39;12.20;;;7.38;;
9108;SDS011;4590;51.462;6.692;2023-11-21T15:04:22;11.80;;;7.18;;
9108;SDS011;4590;51.462;6.692;2023-11-21T15:07:04;12.73;;;7.68;;
9108;SDS011;4590;51.462;6.692;2023-11-21T15:09:31;12.07;;;7.10;;
9108;SDS011;4590;51.462;6.692;2023-11-21T15:11:57;11.80;;;6.72;;
9108;SDS011;4590;51.462;6.692;2023-11-21T15:14:28;13.52;;;7.68;;
9108;SDS011;4590;51.462;6.692;2023-11-21T15:16:57;10.55;;;6.47;;
9108;SDS011;4590;51.462;6.692;2023-11-21T15:19:25;10.25;;;6.05;;
9108;SDS011;4590;51.462;6.692;2023-11-21T15:21:51;9.38;;;5.35;;
9108;SDS011;4590;51.462;6.692;2023-11-21T15:24:16;11.97;;;6.40;;
9108;SDS011;4590;51.462;6.692;2023-11-21T15:26:41;10.60;;;6.37;;
9108;SDS011;4590;51.462;6.692;2023-11-21T15:29:07;10.40;;;5.73;;
9108;SDS011;4590;51.462;6.692;2023-11-21T15:31:32;9.50;;;5.47;;
9108;SDS011;4590;51.462;6.692;2023-11-21T15:33:58;9.17;;;5.37;;
9108;SDS011;4590;51.462;6.692;2023-11-21T15:36:25;8.88;;;4.68;;
9108;SDS011;4590;51.462;6.692;2023-11-21T15:38:51;8.10;;;5.22;;
9108;SDS011;4590;51.462;6.692;2023-11-21T15:41:17;7.65;;;5.05;;